Language: 


Des rapports , des résumés tant et plus, au choix de chacun....


Données statistiques de la station
Quotidien Rapport Juin 22, 2017 Unités:  Anglais    Métrique   les deux
« Précédent Jour
Suivant Jour »
Quotidien Hebdomadaire Mensuel Annuel Actuel
  Haut: Bas: Moyen:
Température: 87.1 °F 32 °F 73.4 °F
Pt de rosée: 71.6 °F 55.4 °F 62.8 °F
Humidité: 89 % 0 % 69 %
Vitesse du vent: 23.3 mph 0 mph 7.1 mph
Rafales: 25.9 mph - -
Vent:- - WSW
Pression: 30 in 0 in -
Précipitation: 0 in    
Historical Graphs
 
 
Données statistiques pour Juin 22, 2017
Heure Température Point de rosée Pression Vent Vitesse du vent Refales Humidité Pluie (taux horaire)
00:02 77 °F 62.6 °F 29.9 in Calm   1.6 mph 62 % 0 in
00:07 76.6 °F 62.6 °F 29.9 in Calm   1.6 mph 62 % 0 in
00:12 76.6 °F 62.6 °F 29.9 in Calm     62 % 0 in
00:15 76.6 °F 62.6 °F 29.9 in Calm     62 % 0 in
00:20 76.6 °F 62.6 °F 29.9 in Calm     62 % 0 in
00:25 76.6 °F 62.6 °F 29.9 in Calm     62 % 0 in
00:30 76.6 °F 62.6 °F 29.9 in Calm     62 % 0 in
00:35 76.6 °F 62.6 °F 29.9 in Calm     62 % 0 in
00:40 73.9 °F 62.6 °F 29.9 in Calm     66 % 0 in
00:45 73.9 °F 62.6 °F 29.9 in Calm     66 % 0 in
00:50 73.9 °F 62.6 °F 29.9 in Calm     66 % 0 in
00:55 73.9 °F 62.6 °F 29.9 in Calm     66 % 0 in
01:00 73.9 °F 62.6 °F 29.9 in Calm     66 % 0 in
01:05 73.9 °F 62.6 °F 29.9 in Calm     66 % 0 in
01:11 73.9 °F 62.6 °F 29.9 in Calm     66 % 0 in
01:16 73.9 °F 62.6 °F 29.9 in Calm     66 % 0 in
01:21 73.9 °F 62.6 °F 29.9 in Calm     66 % 0 in
01:26 73.9 °F 62.6 °F 29.9 in Calm     66 % 0 in
01:31 73.9 °F 62.6 °F 29.9 in Calm     66 % 0 in
01:36 72.1 °F 62.6 °F 29.9 in Calm     70 % 0 in
01:41 72.1 °F 62.6 °F 29.9 in Calm     70 % 0 in
01:46 72.1 °F 62.6 °F 29.9 in Calm     70 % 0 in
01:51 71.8 °F 62.6 °F 29.9 in West 3.6 mph 3.8 mph 72 % 0 in
01:56 71.8 °F 62.6 °F 29.9 in Calm   4 mph 72 % 0 in
02:01 71.8 °F 62.6 °F 29.9 in Calm   4 mph 72 % 0 in
02:06 72.3 °F 62.6 °F 29.9 in Calm   1.3 mph 73 % 0 in
02:11 72.3 °F 62.6 °F 29.9 in Calm     73 % 0 in
02:16 72.3 °F 62.6 °F 29.9 in Calm     73 % 0 in
02:22 72.3 °F 62.6 °F 29.9 in Calm     73 % 0 in
02:27 72.3 °F 62.6 °F 29.9 in Calm     73 % 0 in
02:32 72.3 °F 62.6 °F 29.9 in Calm     73 % 0 in
02:37 70.9 °F 62.6 °F 29.9 in Calm     75 % 0 in
02:42 70.5 °F 62.6 °F 29.9 in Calm     76 % 0 in
02:47 70.3 °F 62.6 °F 29.9 in Calm     76 % 0 in
02:52 70.2 °F 62.6 °F 29.9 in Calm   1.6 mph 77 % 0 in
02:57 70.3 °F 62.6 °F 29.9 in Calm   1.6 mph 78 % 0 in
03:02 70.5 °F 64.4 °F 29.9 in Calm     80 % 0 in
03:07 70.5 °F 64.4 °F 29.9 in Calm     80 % 0 in
03:08 70.5 °F 64.4 °F 29.9 in Calm     80 % 0 in
03:13 70.5 °F 64.4 °F 29.9 in Calm     81 % 0 in
03:18 70.5 °F 64.4 °F 29.9 in Calm     80 % 0 in
03:23 70.5 °F 64.4 °F 29.9 in Calm     80 % 0 in
03:28 70.3 °F 64.4 °F 29.9 in Calm     80 % 0 in
03:33 70.2 °F 64.4 °F 29.9 in Calm     80 % 0 in
03:38 70 °F 64.4 °F 29.9 in Calm     80 % 0 in
03:44 69.6 °F 64.4 °F 29.9 in Calm     80 % 0 in
03:49 69.6 °F 64.4 °F 29.9 in Calm     81 % 0 in
03:54 69.4 °F 62.6 °F 29.9 in Calm     81 % 0 in
03:59 69.3 °F 62.6 °F 29.9 in Calm     81 % 0 in
04:04 69.3 °F 62.6 °F 29.9 in Calm     81 % 0 in
04:09 68.9 °F 62.6 °F 29.9 in Calm     81 % 0 in
04:14 68.7 °F 62.6 °F 29.9 in Calm     82 % 0 in
04:19 68.5 °F 62.6 °F 29.9 in Calm     82 % 0 in
04:24 68.4 °F 62.6 °F 29.9 in Calm     82 % 0 in
04:29 68.2 °F 62.6 °F 29.9 in Calm     82 % 0 in
04:34 67.8 °F 62.6 °F 29.8 in Calm     83 % 0 in
04:39 67.6 °F 62.6 °F 29.8 in Calm     84 % 0 in
04:44 67.6 °F 62.6 °F 29.8 in Calm     84 % 0 in
04:49 67.6 °F 62.6 °F 29.8 in Calm     85 % 0 in
04:54 67.5 °F 62.6 °F 29.8 in Calm   2.5 mph 85 % 0 in
04:59 67.5 °F 62.6 °F 29.8 in Calm   2.5 mph 85 % 0 in
05:04 67.3 °F 62.6 °F 29.9 in Calm   2.2 mph 85 % 0 in
05:09 67.1 °F 62.6 °F 29.9 in West 2 mph 2.2 mph 85 % 0 in
05:14 67.1 °F 62.6 °F 29.9 in Calm   2.5 mph 86 % 0 in
05:19 66.9 °F 62.6 °F 29.8 in Calm   2.5 mph 86 % 0 in
05:24 66.9 °F 62.6 °F 29.8 in Calm     86 % 0 in
05:29 66.9 °F 62.6 °F 29.8 in Calm     86 % 0 in
05:34 66.9 °F 62.6 °F 29.9 in Calm     87 % 0 in
05:39 67.1 °F 64.4 °F 29.9 in WSW 4.3 mph 4.9 mph 88 % 0 in
05:44 67.1 °F 64.4 °F 29.9 in Calm   4.9 mph 87 % 0 in
05:49 67.5 °F 64.4 °F 29.8 in WSW 3.4 mph 5.6 mph 88 % 0 in
05:55 67.8 °F 64.4 °F 29.8 in West 4.9 mph 5.6 mph 89 % 0 in
06:00 67.8 °F 64.4 °F 29.8 in Calm   5.6 mph 88 % 0 in
06:05 67.8 °F 64.4 °F 29.9 in Calm   4.9 mph 88 % 0 in
06:10 67.6 °F 64.4 °F 29.9 in Calm     88 % 0 in
06:13 67.6 °F 64.4 °F 29.9 in Calm     88 % 0 in
06:18 67.6 °F 64.4 °F 29.9 in WSW 2.7 mph 2.7 mph 88 % 0 in
06:23 67.6 °F 64.4 °F 29.9 in Calm   2.7 mph 87 % 0 in
06:28 67.8 °F 64.4 °F 29.9 in Calm   3.6 mph 88 % 0 in
06:34 68.2 °F 64.4 °F 29.9 in Calm   4 mph 88 % 0 in
06:39 68.4 °F 64.4 °F 29.9 in West 3.1 mph 4.7 mph 88 % 0 in
06:44 68.7 °F 64.4 °F 29.9 in WSW 3.8 mph 4.7 mph 88 % 0 in
06:49 69.3 °F 66.2 °F 29.9 in West 0.9 mph 4.7 mph 88 % 0 in
06:54 69.8 °F 66.2 °F 29.9 in West 5.8 mph 5.8 mph 88 % 0 in
06:59 70.5 °F 66.2 °F 29.9 in West 5.6 mph 6 mph 87 % 0 in
07:04 71.1 °F 68 °F 29.9 in WSW 6 mph 6.3 mph 87 % 0 in
07:09 71.4 °F 68 °F 29.9 in SSW 3.8 mph 7.6 mph 86 % 0 in
07:14 71.6 °F 66.2 °F 29.9 in Calm   7.6 mph 84 % 0 in
07:19 72.1 °F 68 °F 29.8 in WSW 6 mph 7.4 mph 84 % 0 in
07:24 72.3 °F 66.2 °F 29.8 in WSW 5.6 mph 7.6 mph 82 % 0 in
07:29 72.5 °F 68 °F 29.8 in West 4.9 mph 7.6 mph 82 % 0 in
07:34 72.9 °F 66.2 °F 29.9 in West 6 mph 7.6 mph 81 % 0 in
07:39 73.2 °F 68 °F 29.9 in Calm   7.6 mph 81 % 0 in
07:44 73.4 °F 68 °F 29.9 in WSW 6 mph 8.7 mph 80 % 0 in
07:49 73.6 °F 68 °F 29.9 in WSW 6.5 mph 8.7 mph 80 % 0 in
07:54 73.9 °F 68 °F 29.9 in WSW 8.7 mph 8.7 mph 79 % 0 in
08:00 74.1 °F 68 °F 29.9 in West 9.2 mph 9.6 mph 79 % 0 in
08:05 74.5 °F 68 °F 29.9 in West 3.8 mph 9.6 mph 79 % 0 in
08:10 74.7 °F 68 °F 29.9 in West 5.4 mph 9.8 mph 78 % 0 in
08:15 74.7 °F 68 °F 29.9 in WSW 8.1 mph 9.8 mph 77 % 0 in
08:20 74.8 °F 68 °F 29.9 in West 8.7 mph 12.5 mph 77 % 0 in
08:25 74.8 °F 68 °F 29.9 in West 8.1 mph 12.5 mph 77 % 0 in
08:30 75.2 °F 68 °F 29.9 in SSW 5.8 mph 10.7 mph 77 % 0 in
08:35 75.9 °F 68 °F 29.9 in West 6.7 mph 10.1 mph 77 % 0 in
08:40 76.1 °F 68 °F 29.9 in West 6 mph 10.3 mph 75 % 0 in
08:45 76.6 °F 68 °F 29.9 in WSW 6.5 mph 10.3 mph 75 % 0 in
08:50 76.8 °F 69.8 °F 29.9 in West 6.3 mph 9.2 mph 75 % 0 in
08:55 77.4 °F 69.8 °F 29.9 in West 6.9 mph 7.2 mph 74 % 0 in
09:00 77.7 °F 68 °F 29.9 in WSW 4.9 mph 7.2 mph 73 % 0 in
09:05 77.9 °F 68 °F 29.9 in West 5.4 mph 8.7 mph 71 % 0 in
09:10 78.3 °F 68 °F 29.9 in West 7.4 mph 9.6 mph 71 % 0 in
09:15 78.6 °F 69.8 °F 29.9 in West 6.3 mph 9.6 mph 71 % 0 in
09:20 79.2 °F 69.8 °F 29.9 in WSW 6 mph 10.3 mph 71 % 0 in
09:25 79.7 °F 69.8 °F 29.9 in WSW 6.3 mph 10.3 mph 71 % 0 in
09:35 80.4 °F 69.8 °F 29.9 in SW 4 mph 8.7 mph 69 % 0 in
09:36 80.4 °F 69.8 °F 29.9 in Calm   8.7 mph 69 % 0 in
09:41 81.1 °F 69.8 °F 29.9 in SW 5.8 mph 8.7 mph 68 % 0 in
09:46 81.3 °F 69.8 °F 29.9 in WSW 3.6 mph 7.2 mph 68 % 0 in
09:51 81.7 °F 69.8 °F 29.9 in WSW 4.9 mph 7.6 mph 67 % 0 in
09:56 81.9 °F 69.8 °F 29.9 in WSW 7.6 mph 8.1 mph 66 % 0 in
10:01 81.9 °F 69.8 °F 29.9 in West 5.6 mph 10.3 mph 65 % 0 in
10:06 81.9 °F 69.8 °F 29.9 in WSW 6.5 mph 10.3 mph 64 % 0 in
10:11 82.4 °F 69.8 °F 29.9 in WSW 4.3 mph 8.7 mph 65 % 0 in
10:16 83.3 °F 71.6 °F 29.9 in SW 4 mph 9.8 mph 64 % 0 in
10:21 83.1 °F 69.8 °F 29.9 in WSW 5.6 mph 9.8 mph 64 % 0 in
10:26 83.5 °F 69.8 °F 29.9 in WSW 3.6 mph 7.4 mph 63 % 0 in
10:31 83.8 °F 69.8 °F 29.9 in SW 4 mph 8.5 mph 63 % 0 in
10:36 84.2 °F 69.8 °F 29.9 in WSW 4.3 mph 8.5 mph 62 % 0 in
10:41 84.2 °F 69.8 °F 29.9 in West 7.2 mph 10.1 mph 60 % 0 in
10:46 84.6 °F 69.8 °F 29.9 in WSW 6 mph 10.1 mph 61 % 0 in
10:52 85.1 °F 69.8 °F 29.9 in WSW 4.7 mph 10.5 mph 61 % 0 in
10:57 85.5 °F 69.8 °F 29.9 in SSW 6.5 mph 10.5 mph 60 % 0 in
11:02 85.6 °F 69.8 °F 29.9 in SW 6.5 mph 11.9 mph 59 % 0 in
11:07 85.8 °F 69.8 °F 29.9 in West 7.8 mph 11.9 mph 59 % 0 in
11:12 85.6 °F 68 °F 29.9 in West 12.1 mph 13 mph 57 % 0 in
11:17 84.9 °F 66.2 °F 29.8 in West 10.1 mph 13.2 mph 55 % 0 in
11:22 85.5 °F 68 °F 29.8 in West 9.8 mph 13.2 mph 55 % 0 in
11:27 85.5 °F 68 °F 29.8 in West 10.3 mph 17.2 mph 54 % 0 in
11:32 85.8 °F 68 °F 29.8 in West 13.6 mph 17.2 mph 55 % 0 in
11:38 32 °F 64.4 °F 0 in WSW 11 mph 16.3 mph 0 % 0 in
11:43 86.4 °F 66.2 °F 29.8 in West 12.8 mph 16.3 mph 49 % 0 in
11:48 86.9 °F 68 °F 29.9 in WSW 13.2 mph 13.2 mph 51 % 0 in
11:53 86.7 °F 68 °F 29.9 in SSW 7.8 mph 13.2 mph 52 % 0 in
11:59 85.8 °F 64.4 °F 29.9 in WSW 5.6 mph 11.4 mph 50 % 0 in
12:04 85.6 °F 64.4 °F 29.9 in West 7.8 mph 12.5 mph 49 % 0 in
12:09 85.5 °F 62.6 °F 29.9 in SW 8.1 mph 12.5 mph 47 % 0 in
12:14 85.1 °F 62.6 °F 29.9 in WSW 6.5 mph 12.8 mph 46 % 0 in
12:19 85.5 °F 62.6 °F 29.9 in SSW 12.3 mph 17 mph 45 % 0 in
12:24 85.1 °F 60.8 °F 29.9 in West 5.8 mph 17 mph 43 % 0 in
12:29 84.9 °F 59 °F 29.9 in SW 15.2 mph 15.2 mph 42 % 0 in
12:34 84.9 °F 59 °F 29.9 in West 6.7 mph 15.2 mph 42 % 0 in
12:39 86.4 °F 60.8 °F 29.9 in WSW 7.4 mph 15.2 mph 43 % 0 in
12:44 87.1 °F 60.8 °F 29.9 in WSW 15.9 mph 15.9 mph 42 % 0 in
12:49 86.9 °F 62.6 °F 29.9 in WSW 11.9 mph 17.7 mph 43 % 0 in
12:51 87.1 °F 60.8 °F 29.9 in WSW 12.8 mph 17.7 mph 42 % 0 in
12:56 86.9 °F 62.6 °F 29.9 in WSW 10.7 mph 16.8 mph 44 % 0 in
13:01 86.5 °F 64.4 °F 29.9 in WSW 8.1 mph 17.2 mph 46 % 0 in
13:06 86.2 °F 64.4 °F 29.9 in West 15.2 mph 17.2 mph 49 % 0 in
13:11 85.1 °F 64.4 °F 29.9 in West 10.5 mph 19.5 mph 50 % 0 in
13:16 84.6 °F 64.4 °F 29.9 in West 11.4 mph 19.5 mph 51 % 0 in
13:19 84.6 °F 66.2 °F 29.9 in WSW 9.8 mph 15.4 mph 52 % 0 in
13:24 84.6 °F 66.2 °F 29.9 in West 9.2 mph 16.6 mph 53 % 0 in
13:34 84.4 °F 66.2 °F 29.9 in West 13.4 mph 18.8 mph 52 % 0 in
13:39 83.7 °F 66.2 °F 29.9 in WSW 12.8 mph 22.1 mph 54 % 0 in
13:44 83.1 °F 66.2 °F 29.9 in WSW 13.2 mph 25.9 mph 55 % 0 in
13:49 83.5 °F 66.2 °F 29.9 in WSW 16.3 mph 25.9 mph 56 % 0 in
13:54 83.5 °F 66.2 °F 29.9 in WSW 13.2 mph 17.7 mph 56 % 0 in
13:59 82.4 °F 64.4 °F 29.9 in West 13 mph 17.2 mph 55 % 0 in
14:01 82.4 °F 64.4 °F 29.9 in West 14.8 mph 17.2 mph 55 % 0 in
14:06 81.9 °F 64.4 °F 29.9 in WSW 12.8 mph 17.4 mph 56 % 0 in
14:11 81.7 °F 66.2 °F 29.9 in WSW 10.1 mph 17.4 mph 57 % 0 in
14:16 82 °F 66.2 °F 29.9 in WSW 14.8 mph 14.8 mph 59 % 0 in
14:21 82 °F 66.2 °F 29.9 in West 12.3 mph 15.2 mph 57 % 0 in
14:26 80.8 °F 64.4 °F 29.9 in West 8.5 mph 15.7 mph 56 % 0 in
14:31 80.6 °F 64.4 °F 29.9 in WSW 12.5 mph 16.1 mph 57 % 0 in
14:36 79.9 °F 64.4 °F 29.9 in SW 20.1 mph 20.1 mph 57 % 0 in
14:41 78.4 °F 62.6 °F 29.9 in West 12.8 mph 20.1 mph 58 % 0 in
14:46 78.1 °F 64.4 °F 29.9 in WSW 13.9 mph 22.4 mph 60 % 0 in
14:51 77.2 °F 62.6 °F 29.9 in SW 10.3 mph 22.4 mph 60 % 0 in
14:57 77.7 °F 62.6 °F 29.9 in WSW 14.1 mph 17.7 mph 61 % 0 in
15:02 77.5 °F 62.6 °F 29.9 in WSW 13 mph 19.9 mph 61 % 0 in
15:12 75.4 °F 60.8 °F 29.9 in West 11 mph 17.2 mph 62 % 0 in
15:17 74.8 °F 62.6 °F 29.9 in West 9.8 mph 17.4 mph 64 % 0 in
15:22 74.3 °F 60.8 °F 29.9 in WSW 12.8 mph 17.4 mph 63 % 0 in
15:27 73 °F 60.8 °F 29.9 in WSW 10.5 mph 16.1 mph 64 % 0 in
15:32 72.5 °F 60.8 °F 29.9 in WSW 11.4 mph 17.7 mph 65 % 0 in
15:37 73 °F 60.8 °F 29.9 in SSW 9.4 mph 17.7 mph 67 % 0 in
15:42 73.6 °F 60.8 °F 29.9 in WSW 18.1 mph 19.7 mph 66 % 0 in
15:47 73.2 °F 60.8 °F 29.9 in West 10.5 mph 19.7 mph 65 % 0 in
15:52 72.7 °F 60.8 °F 29.9 in WSW 19.7 mph 19.7 mph 66 % 0 in
15:57 72.5 °F 60.8 °F 29.9 in WSW 12.5 mph 19.7 mph 66 % 0 in
16:02 73.6 °F 60.8 °F 29.9 in WSW 13.2 mph 19.9 mph 65 % 0 in
16:07 73.8 °F 60.8 °F 29.9 in West 8.7 mph 21 mph 64 % 0 in
16:12 73.4 °F 60.8 °F 29.9 in WSW 9.6 mph 21 mph 64 % 0 in
16:15 73.4 °F 60.8 °F 29.9 in SW 6.3 mph 21 mph 65 % 0 in
16:22 32 °F 60.8 °F 29.9 in Calm     0 % 0 in
16:27 74.1 °F 60.8 °F 29.9 in WSW 10.5 mph 14.3 mph 64 % 0 in
16:32 75.4 °F 60.8 °F 29.9 in WSW 13.2 mph 15.4 mph 62 % 0 in
16:37 75.2 °F 60.8 °F 29.9 in West 16.3 mph 22.1 mph 61 % 0 in
16:42 75 °F 60.8 °F 29.9 in WSW 9.6 mph 22.1 mph 62 % 0 in
16:47 76.3 °F 62.6 °F 29.9 in WSW 10.7 mph 17.7 mph 61 % 0 in
16:52 76.6 °F 60.8 °F 29.9 in SSW 17.2 mph 17.7 mph 59 % 0 in
16:58 75.6 °F 60.8 °F 29.9 in West 13.2 mph 18.8 mph 59 % 0 in
16:59 75.6 °F 60.8 °F 29.9 in WSW 14.3 mph 18.8 mph 59 % 0 in
17:04 75 °F 60.8 °F 29.9 in SW 15.2 mph 18.8 mph 61 % 0 in
17:09 75 °F 60.8 °F 29.9 in SSW 17.7 mph 17.7 mph 59 % 0 in
17:14 74.1 °F 59 °F 29.9 in WSW 15.2 mph 20.1 mph 58 % 0 in
17:19 73.6 °F 57.2 °F 29.9 in West 12.3 mph 20.1 mph 58 % 0 in
17:24 72.9 °F 59 °F 29.9 in WSW 15.9 mph 19.7 mph 60 % 0 in
17:29 73.8 °F 59 °F 29.9 in WSW 13.6 mph 19.7 mph 60 % 0 in
17:33 74.1 °F 59 °F 29.9 in West 23.3 mph 23.3 mph 59 % 0 in
17:38 74.8 °F 59 °F 29.9 in West 13.2 mph 23.3 mph 58 % 0 in
17:43 74.7 °F 59 °F 29.9 in WNW 12.8 mph 23.3 mph 57 % 0 in
17:48 74.5 °F 59 °F 29.9 in West 10.7 mph 22.1 mph 57 % 0 in
17:53 74.7 °F 59 °F 29.9 in West 12.1 mph 22.1 mph 57 % 0 in
17:59 74.5 °F 59 °F 29.9 in West 10.5 mph 19.9 mph 58 % 0 in
18:04 74.5 °F 59 °F 29.9 in WSW 13.4 mph 19.2 mph 57 % 0 in
18:09 73.9 °F 57.2 °F 29.9 in West 14.8 mph 20.4 mph 57 % 0 in
18:14 73.9 °F 57.2 °F 29.9 in West 12.5 mph 22.6 mph 57 % 0 in
18:19 74.7 °F 57.2 °F 29.9 in West 6.5 mph 22.6 mph 55 % 0 in
18:24 74.5 °F 57.2 °F 29.9 in West 15.2 mph 20.1 mph 55 % 0 in
18:29 74.1 °F 57.2 °F 29.9 in West 13 mph 20.1 mph 55 % 0 in
18:34 73.9 °F 57.2 °F 29.9 in West 17 mph 19.5 mph 55 % 0 in
18:39 73.9 °F 57.2 °F 29.9 in West 16.1 mph 23.5 mph 54 % 0 in
18:44 73.8 °F 57.2 °F 29.9 in WSW 22.6 mph 23.5 mph 55 % 0 in
18:49 72.9 °F 55.4 °F 29.9 in WNW 17.2 mph 22.6 mph 56 % 0 in
18:54 72.1 °F 55.4 °F 29.9 in WSW 10.7 mph 22.6 mph 56 % 0 in
18:59 71.6 °F 57.2 °F 29.9 in WSW 11 mph 22.6 mph 59 % 0 in
19:04 71.4 °F 57.2 °F 29.9 in West 9.8 mph 19.9 mph 60 % 0 in
19:09 71.1 °F 57.2 °F 29.9 in West 11.4 mph 19.9 mph 60 % 0 in
19:14 70.5 °F 55.4 °F 29.9 in SSW 12.5 mph 20.8 mph 61 % 0 in
19:19 70.2 °F 57.2 °F 29.9 in West 17 mph 20.8 mph 62 % 0 in
19:24 69.8 °F 57.2 °F 29.9 in West 19.7 mph 20.4 mph 64 % 0 in
19:30 69.6 °F 57.2 °F 29.9 in WSW 14.5 mph 19.7 mph 65 % 0 in
19:35 69.3 °F 57.2 °F 29.9 in West 14.5 mph 19.9 mph 66 % 0 in
19:40 69.1 °F 57.2 °F 29.9 in West 13.2 mph 19.9 mph 67 % 0 in
19:45 69.4 °F 57.2 °F 29.9 in West 12.5 mph 19.2 mph 67 % 0 in
19:50 69.3 °F 59 °F 29.9 in West 10.5 mph 17.7 mph 68 % 0 in
19:55 69.4 °F 59 °F 29.9 in West 12.8 mph 17.2 mph 68 % 0 in
20:00 70 °F 59 °F 29.9 in WSW 15.2 mph 17.2 mph 67 % 0 in
20:05 69.6 °F 59 °F 29.9 in WSW 9.8 mph 17 mph 68 % 0 in
20:10 69.4 °F 59 °F 29.9 in West 17.7 mph 19.9 mph 68 % 0 in
20:15 68.9 °F 59 °F 29.9 in WSW 14.1 mph 19.9 mph 68 % 0 in
20:20 68.5 °F 57.2 °F 29.9 in West 13.9 mph 17.4 mph 68 % 0 in
20:25 68.4 °F 57.2 °F 29.9 in WSW 10.5 mph 19.9 mph 68 % 0 in
20:30 68.2 °F 57.2 °F 29.9 in SW 10.5 mph 19.9 mph 69 % 0 in
20:35 68 °F 57.2 °F 29.9 in WSW 14.1 mph 19.5 mph 69 % 0 in
20:37 68 °F 57.2 °F 29.9 in West 10.7 mph 19.5 mph 69 % 0 in
20:42 67.8 °F 57.2 °F 29.9 in West 11 mph 19.5 mph 70 % 0 in
20:48 67.6 °F 57.2 °F 29.9 in WSW 8.7 mph 16.6 mph 70 % 0 in
20:53 67.6 °F 57.2 °F 29.9 in WSW 10.3 mph 16.6 mph 71 % 0 in
20:58 67.5 °F 57.2 °F 29.9 in West 10.1 mph 13 mph 71 % 0 in
21:03 67.3 °F 57.2 °F 29.9 in West 10.1 mph 13 mph 71 % 0 in
21:04 67.3 °F 57.2 °F 29.9 in West 13.2 mph 13.2 mph 71 % 0 in
21:09 67.3 °F 59 °F 29.9 in West 10.3 mph 13.2 mph 72 % 0 in
21:14 67.1 °F 59 °F 29.9 in SW 10.3 mph 13.2 mph 72 % 0 in
21:19 67.1 °F 59 °F 29.9 in WSW 5.8 mph 11.2 mph 72 % 0 in
21:24 66.9 °F 57.2 °F 29.9 in WSW 13.2 mph 15.2 mph 73 % 0 in
21:29 66.7 °F 57.2 °F 29.9 in West 7.8 mph 15.4 mph 73 % 0 in
21:34 66.6 °F 59 °F 29.9 in West 5.8 mph 15.4 mph 74 % 0 in
21:39 66.4 °F 59 °F 29.9 in West 8.5 mph 11 mph 75 % 0 in
21:44 66.2 °F 59 °F 29.9 in WSW 11 mph 13 mph 76 % 0 in
21:49 66 °F 59 °F 29.9 in West 9.4 mph 13 mph 77 % 0 in
21:54 66 °F 59 °F 29.9 in West 8.7 mph 12.3 mph 77 % 0 in
21:59 65.7 °F 59 °F 29.9 in WSW 7.8 mph 12.3 mph 78 % 0 in
22:04 65.5 °F 59 °F 29.9 in WSW 6 mph 9.8 mph 78 % 0 in
22:09 65.3 °F 59 °F 29.9 in WSW 6.3 mph 8.7 mph 78 % 0 in
22:14 65.1 °F 59 °F 29.9 in WSW 7.6 mph 9.8 mph 79 % 0 in
22:20 65.1 °F 59 °F 29.9 in West 11.9 mph 12.8 mph 80 % 0 in
22:25 64.9 °F 59 °F 29.9 in West 10.3 mph 12.8 mph 80 % 0 in
22:30 64.8 °F 59 °F 29.9 in WSW 6 mph 12.1 mph 81 % 0 in
22:35 64.6 °F 59 °F 29.9 in West 8.7 mph 11 mph 81 % 0 in
22:40 64.4 °F 59 °F 29.9 in WSW 5.4 mph 11 mph 82 % 0 in
22:45 64.2 °F 59 °F 29.9 in West 8.7 mph 9.8 mph 82 % 0 in
22:50 64.2 °F 59 °F 29.9 in WSW 7.4 mph 10.7 mph 83 % 0 in
22:55 64 °F 59 °F 29.9 in SSW 5.4 mph 10.7 mph 83 % 0 in
23:00 63.9 °F 59 °F 29.9 in West 7.2 mph 10.3 mph 83 % 0 in
23:05 63.5 °F 59 °F 29.9 in West 4.7 mph 8.5 mph 83 % 0 in
23:10 63.3 °F 59 °F 29.9 in West 7.4 mph 8.1 mph 84 % 0 in
23:15 63.1 °F 59 °F 29.9 in WSW 4.9 mph 8.1 mph 84 % 0 in
23:20 63.1 °F 59 °F 29.9 in SW 8.5 mph 11 mph 85 % 0 in
23:25 63 °F 59 °F 29.9 in West 6 mph 11 mph 86 % 0 in
23:30 62.8 °F 59 °F 29.9 in WSW 7.8 mph 10.3 mph 86 % 0 in
23:35 62.6 °F 59 °F 30 in WSW 6 mph 8.5 mph 86 % 0 in
23:40 62.4 °F 59 °F 30 in West 7.6 mph 9.6 mph 86 % 0 in
23:45 62.2 °F 57.2 °F 30 in WSW 4.9 mph 9.6 mph 86 % 0 in
23:50 62.1 °F 59 °F 30 in WSW 6 mph 8.7 mph 87 % 0 in
23:55 61.9 °F 59 °F 30 in WSW 7.2 mph 8.7 mph 87 % 0 in
Le Gheer Warneton
Courtoisie de Weather Underground - 2.5 mb

Mise a jour : 18/12/2017 04:16:12
Généré par Cumulus 1.9.4 (1099)